| time (UTC) | temp C | wind direction | speed KPH | gust KPH | rain 1hr cm | rain 24hr cm | rain mn cm | humidity % | barometer mb |
| 20260831071512 | 11 | 261 | 6.4 | 17.7 | 0.00 | 0.05 | 0.00 | 65 | 1008.2 |
| 20260831070012 | 11 | 261 | 8.0 | 17.7 | 0.00 | 0.05 | 0.00 | 64 | 1008.2 |
| 20260831064506 | 12 | 297 | 8.0 | 22.5 | 0.00 | 0.05 | 0.00 | 63 | 1008.2 |
| 20260831063004 | 12 | 286 | 9.7 | 22.5 | 0.00 | 0.05 | 0.00 | 61 | 1008.0 |
| 20260831061605 | 12 | 223 | 12.9 | 27.4 | 0.00 | 0.05 | 0.00 | 60 | 1008.1 |
| 20260831060057 | 12 | 277 | 8.0 | 19.3 | 0.00 | 0.05 | 0.00 | 60 | 1007.9 |
| 20260831054554 | 13 | 270 | 8.0 | 19.3 | 0.00 | 0.05 | 0.05 | 60 | 1007.9 |
| 20260831053053 | 13 | 265 | 6.4 | 22.5 | 0.00 | 0.05 | 0.05 | 59 | 1007.9 |
| 20260831051559 | 13 | 284 | 11.3 | 24.1 | 0.00 | 0.05 | 0.05 | 60 | 1007.9 |
| 20260831050050 | 13 | 284 | 6.4 | 22.5 | 0.00 | 0.05 | 0.05 | 60 | 1008.0 |
| 20260831044551 | 13 | 242 | 11.3 | 27.4 | 0.00 | 0.05 | 0.05 | 58 | 1008.2 |
| 20260831043046 | 14 | 261 | 11.3 | 25.7 | 0.00 | 0.05 | 0.05 | 54 | 1008.1 |
| 20260831041551 | 15 | 275 | 11.3 | 25.7 | 0.00 | 0.05 | 0.05 | 48 | 1007.5 |
| 20260831040046 | 15 | 290 | 9.7 | 24.1 | 0.00 | 0.05 | 0.05 | 48 | 1007.7 |
| 20260831034549 | 15 | 286 | 4.8 | 22.5 | 0.00 | 0.05 | 0.05 | 48 | 1007.9 |
| 20260831033044 | 15 | 323 | 11.3 | 27.4 | 0.00 | 0.05 | 0.05 | 47 | 1007.9 |
| 20260831031544 | 15 | 267 | 11.3 | 20.9 | 0.00 | 0.05 | 0.05 | 48 | 1007.7 |
| 20260831030044 | 15 | 236 | 11.3 | 24.1 | 0.00 | 0.05 | 0.05 | 48 | 1007.6 |
| 20260831024544 | 15 | 270 | 8.0 | 20.9 | 0.00 | 0.05 | 0.05 | 47 | 1007.4 |
| 20260831023042 | 15 | 330 | 12.9 | 30.6 | 0.00 | 0.05 | 0.05 | 46 | 1007.2 |
| 20260831021542 | 16 | 269 | 9.7 | 30.6 | 0.00 | 0.05 | 0.05 | 46 | 1007.0 |
| 20260831020047 | 15 | 239 | 11.3 | 25.7 | 0.00 | 0.05 | 0.05 | 48 | 1007.1 |
| 20260831014542 | 15 | 261 | 8.0 | 17.7 | 0.00 | 0.05 | 0.05 | 51 | 1006.8 |
| 20260831013046 | 16 | 266 | 9.7 | 20.9 | 0.00 | 0.05 | 0.05 | 49 | 1006.8 |
| 20260831011545 | 16 | 261 | 8.0 | 20.9 | 0.00 | 0.05 | 0.05 | 51 | 1007.0 |
| 20260831010043 | 16 | 323 | 12.9 | 27.4 | 0.00 | 0.05 | 0.05 | 49 | 1007.0 |
| 20260831004540 | 16 | 273 | 16.1 | 35.4 | 0.00 | 0.05 | 0.05 | 47 | 1007.1 |
| 20260831003041 | 17 | 263 | 16.1 | 29.0 | 0.00 | 0.05 | 0.05 | 45 | 1007.0 |
| 20260831001538 | 17 | 284 | 19.3 | 35.4 | 0.00 | 0.05 | 0.05 | 41 | 1006.8 |
| 20260831000038 | 17 | 288 | 16.1 | 37.0 | 0.00 | 0.05 | 0.05 | 39 | 1006.5 |
| 20260830234542 | 19 | 273 | 14.5 | 33.8 | 0.00 | 0.05 | 0.05 | 37 | 1006.4 |
| 20260830233037 | 19 | 241 | 16.1 | 35.4 | 0.00 | 0.05 | 0.05 | 37 | 1006.2 |
| 20260830231537 | 18 | 261 | 11.3 | 22.5 | 0.00 | 0.05 | 0.05 | 41 | 1006.3 |
| 20260830230036 | 17 | 242 | 14.5 | 27.4 | 0.00 | 0.05 | 0.05 | 42 | 1006.6 |
| 20260830224536 | 17 | 256 | 17.7 | 33.8 | 0.00 | 0.05 | 0.05 | 42 | 1006.7 |
| 20260830223036 | 17 | 201 | 16.1 | 29.0 | 0.00 | 0.05 | 0.05 | 41 | 1006.8 |
| 20260830221544 | 17 | 217 | 14.5 | 29.0 | 0.00 | 0.05 | 0.05 | 42 | 1006.8 |
| 20260830220035 | 17 | 294 | 12.9 | 30.6 | 0.00 | 0.05 | 0.05 | 42 | 1006.9 |
| 20260830214534 | 18 | 256 | 16.1 | 37.0 | 0.00 | 0.05 | 0.05 | 39 | 1006.8 |
| 20260830213033 | 18 | 261 | 16.1 | 38.6 | 0.00 | 0.05 | 0.05 | 38 | 1006.7 |
| 20260830211533 | 20 | 246 | 11.3 | 29.0 | 0.00 | 0.05 | 0.05 | 36 | 1006.7 |
| 20260830210035 | 20 | 246 | 17.7 | 35.4 | 0.00 | 0.05 | 0.05 | 36 | 1006.6 |
| 20260830204532 | 18 | 229 | 16.1 | 37.0 | 0.00 | 0.05 | 0.05 | 40 | 1006.7 |
| 20260830203031 | 17 | 302 | 16.1 | 29.0 | 0.00 | 0.05 | 0.05 | 39 | 1006.5 |
| 20260830201531 | 18 | 263 | 12.9 | 32.2 | 0.00 | 0.05 | 0.05 | 37 | 1006.5 |
| 20260830200042 | 18 | 223 | 11.3 | 35.4 | 0.00 | 0.05 | 0.05 | 39 | 1006.5 |
| 20260830194532 | 18 | 304 | 12.9 | 25.7 | 0.00 | 0.05 | 0.05 | 36 | 1006.4 |
| 20260830193030 | 19 | 247 | 9.7 | 25.7 | 0.00 | 0.05 | 0.05 | 35 | 1006.4 |
| 20260830191529 | 20 | 330 | 8.0 | 20.9 | 0.00 | 0.05 | 0.05 | 33 | 1006.4 |
| 20260830190042 | 20 | 244 | 9.7 | 24.1 | 0.00 | 0.05 | 0.05 | 33 | 1006.3 |
| 20260830184526 | 19 | 237 | 14.5 | 29.0 | 0.00 | 0.05 | 0.05 | 35 | 1006.6 |
| 20260830183023 | 19 | 224 | 11.3 | 30.6 | 0.00 | 0.05 | 0.05 | 38 | 1006.5 |
| 20260830181521 | 18 | 232 | 16.1 | 30.6 | 0.00 | 0.05 | 0.05 | 40 | 1006.6 |
| 20260830180021 | 18 | 248 | 9.7 | 22.5 | 0.00 | 0.05 | 0.05 | 44 | 1006.8 |
| 20260830174518 | 17 | 221 | 16.1 | 27.4 | 0.00 | 0.05 | 0.05 | 50 | 1006.9 |
| 20260830173017 | 17 | 215 | 8.0 | 20.9 | 0.00 | 0.05 | 0.05 | 51 | 1006.8 |
| 20260830171512 | 16 | 265 | 4.8 | 12.9 | 0.00 | 0.05 | 0.05 | 46 | 1007.0 |
| 20260830170010 | 16 | 262 | 4.8 | 16.1 | 0.00 | 0.05 | 0.05 | 46 | 1007.0 |
| 20260830164508 | 16 | 261 | 6.4 | 12.9 | 0.00 | 0.05 | 0.05 | 46 | 1007.0 |
| 20260830163007 | 16 | 241 | 6.4 | 14.5 | 0.00 | 0.05 | 0.05 | 47 | 1006.9 |
| 20260830161503 | 15 | 275 | 3.2 | 12.9 | 0.00 | 0.05 | 0.05 | 51 | 1006.9 |
| 20260830160001 | 15 | 240 | 3.2 | 8.0 | 0.00 | 0.05 | 0.05 | 53 | 1006.8 |
| 20260830154501 | 15 | 260 | 1.6 | 8.0 | 0.00 | 0.05 | 0.05 | 53 | 1006.8 |
| 20260830153058 | 15 | 292 | 1.6 | 8.0 | 0.00 | 0.05 | 0.05 | 56 | 1006.8 |
| 20260830151556 | 14 | 290 | 0.0 | 0.0 | 0.00 | 0.05 | 0.05 | 65 | 1007.0 |
| 20260830150104 | 14 | 238 | 0.0 | 4.8 | 0.00 | 0.05 | 0.05 | 74 | 1007.2 |
| 20260830144555 | 13 | 221 | 0.0 | 8.0 | 0.00 | 0.05 | 0.05 | 69 | 1007.3 |
| 20260830143105 | 13 | 173 | 1.6 | 6.4 | 0.00 | 0.05 | 0.05 | 65 | 1007.2 |
| 20260830141554 | 13 | 160 | 1.6 | 6.4 | 0.00 | 0.05 | 0.05 | 64 | 1007.4 |
| 20260830140053 | 13 | 187 | 1.6 | 9.7 | 0.00 | 0.05 | 0.05 | 67 | 1007.5 |
| 20260830134552 | 13 | 115 | 0.0 | 0.0 | 0.00 | 0.05 | 0.05 | 69 | 1007.8 |
| 20260830133054 | 13 | 113 | 0.0 | 0.0 | 0.00 | 0.05 | 0.05 | 71 | 1007.8 |
| 20260830131549 | 13 | 113 | 0.0 | 6.4 | 0.00 | 0.05 | 0.05 | 74 | 1007.7 |
| 20260830130048 | 13 | 121 | 3.2 | 9.7 | 0.00 | 0.05 | 0.05 | 74 | 1007.5 |
| 20260830124546 | 13 | 98 | 9.7 | 14.5 | 0.00 | 0.05 | 0.05 | 75 | 1007.3 |
| 20260830123044 | 13 | 107 | 9.7 | 16.1 | 0.00 | 0.05 | 0.05 | 74 | 1007.1 |
| 20260830121541 | 13 | 49 | 1.6 | 4.8 | 0.00 | 0.05 | 0.05 | 74 | 1007.1 |
| 20260830120040 | 13 | 262 | 3.2 | 12.9 | 0.00 | 0.05 | 0.05 | 73 | 1006.9 |
| 20260830114540 | 13 | 240 | 4.8 | 12.9 | 0.00 | 0.05 | 0.05 | 73 | 1006.7 |
| 20260830113039 | 13 | 241 | 3.2 | 8.0 | 0.00 | 0.05 | 0.05 | 74 | 1006.3 |
| 20260830111537 | 13 | 276 | 3.2 | 8.0 | 0.00 | 0.05 | 0.05 | 74 | 1006.0 |
| 20260830110037 | 13 | 259 | 0.0 | 8.0 | 0.00 | 0.05 | 0.05 | 74 | 1006.0 |
| 20260830104556 | 13 | 261 | 0.0 | 4.8 | 0.00 | 0.05 | 0.05 | 74 | 1005.6 |
| 20260830103034 | 13 | 269 | 4.8 | 9.7 | 0.00 | 0.05 | 0.05 | 75 | 1005.8 |
| 20260830101534 | 13 | 274 | 4.8 | 9.7 | 0.00 | 0.05 | 0.05 | 75 | 1005.8 |
| 20260830100033 | 13 | 254 | 1.6 | 12.9 | 0.00 | 0.05 | 0.05 | 75 | 1005.9 |
| 20260830094533 | 13 | 275 | 6.4 | 14.5 | 0.00 | 0.05 | 0.05 | 75 | 1006.0 |
| 20260830093038 | 13 | 279 | 4.8 | 16.1 | 0.00 | 0.05 | 0.05 | 74 | 1005.9 |
| 20260830091528 | 13 | 263 | 9.7 | 25.7 | 0.00 | 0.05 | 0.05 | 73 | 1005.9 |
| 20260830090027 | 13 | 261 | 11.3 | 25.7 | 0.03 | 0.05 | 0.05 | 74 | 1006.1 |
| 20260830084526 | 13 | 258 | 9.7 | 22.5 | 0.05 | 0.05 | 0.05 | 73 | 1006.1 |
| 20260830083035 | 13 | 251 | 9.7 | 25.7 | 0.05 | 0.05 | 0.05 | 68 | 1006.3 |
| 20260830081521 | 13 | 259 | 12.9 | 25.7 | 0.05 | 0.05 | 0.05 | 69 | 1006.5 |
| 20260830080019 | 14 | 236 | 12.9 | 33.8 | 0.03 | 0.03 | 0.03 | 70 | 1006.5 |
| 20260830074515 | 15 | 267 | 11.3 | 24.1 | 0.00 | 0.00 | 0.00 | 73 | 1006.2 |
| 20260830073013 | 15 | 246 | 9.7 | 24.1 | 0.00 | 0.00 | 0.00 | 74 | 1005.7 |